Time;durP1;ratioP1;P1;durP2;ratioP2;P2;SDS_P1;SDS_P2;PMS_P1;PMS_P2;Temp;Humidity;BMP_temperature;BMP_pressure;BME280_temperature;BME280_humidity;BME280_pressure;Samples;Min_cycle;Max_cycle;Signal;HPM_P1;HPM_P2
2023/12/14 00:02:25;;;;;;;7.63;3.83;;;7.20;82.90;;;;;;5058075;28;20058;-75
2023/12/14 00:04:54;;;;;;;7.93;3.65;;;7.20;83.00;;;;;;5048244;28;20664;-75
2023/12/14 00:07:21;;;;;;;7.50;3.77;;;7.20;83.10;;;;;;5030346;28;20056;-75
2023/12/14 00:09:47;;;;;;;7.25;3.50;;;7.20;83.00;;;;;;5046568;28;20245;-75
2023/12/14 00:12:14;;;;;;;6.68;3.60;;;7.20;82.90;;;;;;5055975;28;20053;-75
2023/12/14 00:14:41;;;;;;;7.78;4.15;;;7.10;82.80;;;;;;5045252;28;20046;-75
2023/12/14 00:17:08;;;;;;;7.40;3.30;;;7.10;82.70;;;;;;5060693;28;20056;-75
2023/12/14 00:19:35;;;;;;;6.70;3.13;;;7.10;82.60;;;;;;5052356;28;20491;-75
2023/12/14 00:22:03;;;;;;;6.45;3.00;;;7.00;82.70;;;;;;5044754;28;20264;-75
2023/12/14 00:24:30;;;;;;;7.78;3.47;;;7.00;82.70;;;;;;5044873;28;20046;-75
2023/12/14 00:26:57;;;;;;;6.57;3.10;;;7.00;82.70;;;;;;5057590;28;20046;-74
2023/12/14 00:29:24;;;;;;;6.55;3.45;;;7.00;82.80;;;;;;5060053;28;20056;-75
2023/12/14 00:31:51;;;;;;;7.23;3.27;;;7.00;82.80;;;;;;5060462;28;20056;-75
2023/12/14 00:34:18;;;;;;;7.40;3.70;;;7.00;82.90;;;;;;5062193;28;20300;-75
2023/12/14 00:36:45;;;;;;;6.07;3.10;;;7.00;82.80;;;;;;5059853;28;20054;-75
2023/12/14 00:39:13;;;;;;;7.68;3.70;;;7.00;82.90;;;;;;5044082;28;20042;-75
2023/12/14 00:41:40;;;;;;;8.50;3.67;;;7.00;82.80;;;;;;5047994;28;20372;-75
2023/12/14 00:44:07;;;;;;;6.43;2.93;;;7.00;82.90;;;;;;5054509;28;20046;-75
2023/12/14 00:46:34;;;;;;;8.20;3.53;;;7.00;83.00;;;;;;5059446;28;20295;-75
2023/12/14 00:49:02;;;;;;;6.50;3.10;;;7.00;82.80;;;;;;5042231;28;20132;-75
2023/12/14 00:51:28;;;;;;;7.53;3.50;;;7.00;82.80;;;;;;5044344;28;20054;-75
2023/12/14 00:53:55;;;;;;;7.85;3.55;;;7.00;82.80;;;;;;5036017;28;20052;-75
2023/12/14 00:56:24;;;;;;;8.70;3.57;;;7.00;82.80;;;;;;5054784;28;20046;-75
2023/12/14 00:58:50;;;;;;;9.63;4.15;;;7.00;82.80;;;;;;5054520;28;21194;-75
2023/12/14 01:01:17;;;;;;;10.93;4.28;;;7.00;82.80;;;;;;5054541;28;21008;-75
2023/12/14 01:03:44;;;;;;;7.57;3.90;;;7.00;82.90;;;;;;5043561;28;20053;-75
2023/12/14 01:06:11;;;;;;;8.35;3.78;;;7.00;83.00;;;;;;5045692;28;20050;-75
2023/12/14 01:08:38;;;;;;;7.67;3.77;;;7.00;82.90;;;;;;5036093;28;20089;-75
2023/12/14 01:11:05;;;;;;;7.63;3.85;;;7.00;82.90;;;;;;5045457;28;20276;-75
2023/12/14 01:13:33;;;;;;;7.60;3.45;;;7.00;82.90;;;;;;5058795;28;20522;-75
2023/12/14 01:16:00;;;;;;;9.18;4.07;;;7.00;83.00;;;;;;5055554;28;20054;-75
2023/12/14 01:18:27;;;;;;;7.75;3.60;;;7.00;83.00;;;;;;5060244;28;20050;-75
2023/12/14 01:20:54;;;;;;;6.60;3.60;;;7.00;82.70;;;;;;5041760;28;20123;-75
2023/12/14 01:23:21;;;;;;;6.93;3.50;;;7.00;82.60;;;;;;5045110;28;20280;-75
2023/12/14 01:25:47;;;;;;;6.80;3.33;;;7.00;82.70;;;;;;5037060;28;20654;-75
2023/12/14 01:28:14;;;;;;;7.88;3.83;;;7.00;82.60;;;;;;5041831;28;20057;-75
2023/12/14 01:30:43;;;;;;;7.60;3.70;;;7.00;82.90;;;;;;5036285;28;20211;-75
2023/12/14 01:33:09;;;;;;;6.93;3.17;;;7.00;82.90;;;;;;5055913;28;20132;-75
2023/12/14 01:35:36;;;;;;;7.15;3.05;;;7.00;83.00;;;;;;5035300;28;20289;-75
2023/12/14 01:38:03;;;;;;;7.35;3.35;;;7.00;82.70;;;;;;5041673;28;20524;-75
2023/12/14 01:40:30;;;;;;;6.88;3.17;;;7.00;82.60;;;;;;5063989;28;20049;-75
2023/12/14 01:43:08;;;;;;;8.40;3.70;;;7.00;82.60;;;;;;5045809;28;20060;-75
2023/12/14 01:45:34;;;;;;;8.03;3.13;;;7.00;82.50;;;;;;5058088;28;20136;-75
2023/12/14 01:48:03;;;;;;;5.93;2.80;;;7.00;82.50;;;;;;5047190;28;20265;-75
2023/12/14 01:50:30;;;;;;;7.63;3.35;;;7.00;82.60;;;;;;5048125;28;20060;-75
2023/12/14 01:52:56;;;;;;;6.30;3.22;;;7.00;82.70;;;;;;5039205;28;20898;-75
2023/12/14 01:55:24;;;;;;;7.32;3.60;;;7.00;82.70;;;;;;5044299;28;20059;-75
2023/12/14 01:57:51;;;;;;;6.70;3.10;;;7.00;82.60;;;;;;5057196;28;20068;-75
2023/12/14 02:00:26;;;;;;;7.88;3.40;;;7.00;82.50;;;;;;5061144;28;20261;-75
2023/12/14 02:02:53;;;;;;;7.60;3.55;;;7.00;82.50;;;;;;5039140;28;20143;-75
2023/12/14 02:05:22;;;;;;;7.15;3.20;;;7.00;82.50;;;;;;5043925;28;20096;-75
2023/12/14 02:07:49;;;;;;;7.20;3.33;;;6.90;82.30;;;;;;5043129;28;20049;-75
2023/12/14 02:10:16;;;;;;;6.97;3.33;;;6.90;82.30;;;;;;5056878;28;21001;-76
2023/12/14 02:12:43;;;;;;;7.55;3.30;;;6.90;82.40;;;;;;5038450;28;20775;-76
2023/12/14 02:15:10;;;;;;;8.10;3.25;;;6.90;82.20;;;;;;5053131;28;20137;-75
2023/12/14 02:17:37;;;;;;;8.07;3.28;;;6.90;82.30;;;;;;5059188;28;20054;-75
2023/12/14 02:20:05;;;;;;;6.32;3.00;;;6.90;82.20;;;;;;5040585;28;20132;-76
2023/12/14 02:22:48;;;;;;;8.30;3.27;;;6.90;82.00;;;;;;5042555;28;20053;-75
2023/12/14 02:25:15;;;;;;;7.25;3.10;;;6.90;81.90;;;;;;5043521;28;20269;-75
2023/12/14 02:27:42;;;;;;;7.45;3.03;;;6.80;81.90;;;;;;5044446;28;20581;-75
2023/12/14 02:30:10;;;;;;;7.47;2.88;;;6.80;82.00;;;;;;5043326;28;20053;-75
2023/12/14 02:32:37;;;;;;;7.10;3.20;;;6.80;81.80;;;;;;5039010;28;20057;-75
2023/12/14 02:35:04;;;;;;;7.40;3.23;;;6.80;81.90;;;;;;5044729;28;20224;-75
2023/12/14 02:37:31;;;;;;;8.90;3.22;;;6.80;81.90;;;;;;5056951;28;20265;-75
2023/12/14 02:40:00;;;;;;;6.93;2.95;;;6.80;82.00;;;;;;5044729;28;20487;-75
2023/12/14 02:42:27;;;;;;;6.45;3.00;;;6.80;82.40;;;;;;5045364;28;20879;-75
2023/12/14 02:44:54;;;;;;;7.53;3.15;;;6.80;82.30;;;;;;5043544;28;20494;-75
2023/12/14 02:47:21;;;;;;;7.83;3.13;;;6.80;82.10;;;;;;5048218;28;20342;-75
2023/12/14 02:49:48;;;;;;;10.15;3.25;;;6.80;82.10;;;;;;5041994;28;20749;-75
2023/12/14 02:52:15;;;;;;;7.97;3.33;;;6.80;82.00;;;;;;5044489;28;20080;-75
2023/12/14 02:54:42;;;;;;;7.35;2.80;;;6.70;82.10;;;;;;5042611;28;20606;-75
2023/12/14 02:57:10;;;;;;;6.45;2.78;;;6.80;82.10;;;;;;5044636;28;20093;-75
2023/12/14 02:59:37;;;;;;;7.50;3.20;;;6.70;81.90;;;;;;5039206;28;20089;-75
2023/12/14 03:02:04;;;;;;;7.47;2.88;;;6.70;82.10;;;;;;5062361;28;20257;-75
2023/12/14 03:04:31;;;;;;;8.15;3.25;;;6.70;82.10;;;;;;5039129;28;20544;-75
2023/12/14 03:07:02;;;;;;;8.40;3.20;;;6.70;82.00;;;;;;5042537;28;20053;-75
2023/12/14 03:09:29;;;;;;;7.10;3.10;;;6.70;82.10;;;;;;5036978;28;20050;-75
2023/12/14 03:11:56;;;;;;;7.30;2.90;;;6.70;82.10;;;;;;5061610;28;20052;-75
2023/12/14 03:14:24;;;;;;;7.35;3.08;;;6.70;82.00;;;;;;5050541;28;20302;-75
2023/12/14 03:16:51;;;;;;;9.40;3.30;;;6.70;81.80;;;;;;5029620;28;21696;-75
2023/12/14 03:19:18;;;;;;;7.90;3.47;;;6.70;81.90;;;;;;5042446;28;20060;-75
2023/12/14 03:21:45;;;;;;;7.88;2.90;;;6.70;82.00;;;;;;5057160;28;20045;-75
2023/12/14 03:24:12;;;;;;;6.13;2.70;;;6.70;82.10;;;;;;5044416;28;20053;-75
2023/12/14 03:26:38;;;;;;;7.35;2.88;;;6.70;82.00;;;;;;5044085;28;20248;-76
2023/12/14 03:29:05;;;;;;;8.90;3.10;;;6.70;81.90;;;;;;5046003;28;20057;-75
2023/12/14 03:31:34;;;;;;;6.68;2.80;;;6.70;82.00;;;;;;5054822;28;20528;-75
2023/12/14 03:34:01;;;;;;;7.22;3.00;;;6.70;82.00;;;;;;5045888;28;20077;-75
2023/12/14 03:36:28;;;;;;;7.33;2.90;;;6.70;81.90;;;;;;5059079;28;20049;-75
2023/12/14 03:38:55;;;;;;;8.15;3.30;;;6.70;82.00;;;;;;5046291;28;20731;-75
2023/12/14 03:41:22;;;;;;;7.22;2.72;;;6.70;82.20;;;;;;5060233;28;20462;-75
2023/12/14 03:43:49;;;;;;;7.22;3.10;;;6.70;82.30;;;;;;5037673;28;20050;-75
2023/12/14 03:46:15;;;;;;;7.13;3.17;;;6.70;82.50;;;;;;5052729;28;20771;-75
2023/12/14 03:48:44;;;;;;;8.07;2.73;;;6.70;82.50;;;;;;5060064;28;20499;-75
2023/12/14 03:51:11;;;;;;;7.93;3.28;;;6.80;82.50;;;;;;5040557;28;20848;-75
2023/12/14 03:53:37;;;;;;;8.52;3.13;;;6.80;82.50;;;;;;5053433;28;20141;-75
2023/12/14 03:56:05;;;;;;;8.63;3.50;;;6.80;82.40;;;;;;5045165;28;20499;-75
2023/12/14 03:58:32;;;;;;;8.63;3.33;;;6.80;82.20;;;;;;5060138;28;20050;-75
2023/12/14 04:00:59;;;;;;;8.43;3.70;;;6.80;82.10;;;;;;5061090;28;20046;-75
2023/12/14 04:03:25;;;;;;;8.25;3.88;;;6.80;82.20;;;;;;5042844;28;20269;-75
2023/12/14 04:05:54;;;;;;;9.80;4.15;;;6.80;82.40;;;;;;5054925;28;20057;-75
2023/12/14 04:08:20;;;;;;;9.98;3.65;;;6.80;82.30;;;;;;5048843;28;20521;-75
2023/12/14 04:10:47;;;;;;;8.63;3.53;;;6.80;82.30;;;;;;5058260;28;21054;-75
2023/12/14 04:13:14;;;;;;;9.63;3.87;;;6.80;82.20;;;;;;5042819;28;20057;-75
2023/12/14 04:15:41;;;;;;;12.50;4.13;;;6.70;82.20;;;;;;5037843;28;20256;-75
2023/12/14 04:18:09;;;;;;;10.75;4.13;;;6.70;82.30;;;;;;5046577;28;20053;-75
2023/12/14 04:20:35;;;;;;;9.57;4.20;;;6.80;82.30;;;;;;5041797;28;20064;-75
2023/12/14 04:23:04;;;;;;;9.27;3.72;;;6.80;82.30;;;;;;5041514;28;20057;-75
2023/12/14 04:25:30;;;;;;;9.60;4.13;;;6.80;82.30;;;;;;5043594;28;20054;-75
2023/12/14 04:27:57;;;;;;;10.50;3.78;;;6.80;82.00;;;;;;5046791;28;20264;-75
2023/12/14 04:30:24;;;;;;;10.70;4.30;;;6.70;82.10;;;;;;5063980;28;20527;-75
2023/12/14 04:32:51;;;;;;;10.20;4.22;;;6.70;82.30;;;;;;5035632;28;20092;-75
2023/12/14 04:35:18;;;;;;;9.98;4.13;;;6.70;82.30;;;;;;5046638;28;20660;-75
2023/12/14 04:37:45;;;;;;;9.13;4.03;;;6.70;82.20;;;;;;5055641;28;20529;-75
2023/12/14 04:40:14;;;;;;;11.90;4.10;;;6.70;82.20;;;;;;5038435;28;20347;-75
2023/12/14 04:42:41;;;;;;;8.95;4.13;;;6.70;82.10;;;;;;5032389;28;20133;-75
2023/12/14 04:45:09;;;;;;;9.93;4.10;;;6.70;82.10;;;;;;5041722;28;20057;-75
2023/12/14 04:47:36;;;;;;;10.02;3.88;;;6.70;82.20;;;;;;5038620;28;20574;-75
2023/12/14 04:50:03;;;;;;;12.40;4.30;;;6.70;82.20;;;;;;5044366;28;20049;-75
2023/12/14 04:52:30;;;;;;;10.00;4.40;;;6.70;82.10;;;;;;5043015;28;20284;-75
2023/12/14 04:54:56;;;;;;;9.60;3.75;;;6.70;82.10;;;;;;5059599;28;20049;-75
2023/12/14 04:57:25;;;;;;;10.80;4.55;;;6.70;82.00;;;;;;5056675;28;20602;-75
2023/12/14 04:59:53;;;;;;;9.82;4.13;;;6.70;82.10;;;;;;5061395;28;20136;-75
2023/12/14 05:02:19;;;;;;;9.93;3.80;;;6.70;82.30;;;;;;5057864;28;20276;-75
2023/12/14 05:04:46;;;;;;;11.38;3.75;;;6.70;82.20;;;;;;5038029;28;20251;-75
2023/12/14 05:07:13;;;;;;;9.70;4.07;;;6.70;82.10;;;;;;5043921;28;20087;-75
2023/12/14 05:09:40;;;;;;;9.43;3.72;;;6.70;82.10;;;;;;5043216;28;20068;-75
2023/12/14 05:12:07;;;;;;;12.40;4.50;;;6.70;82.10;;;;;;5060665;28;20521;-75
2023/12/14 05:14:35;;;;;;;9.07;3.90;;;6.70;82.10;;;;;;5056947;28;20065;-75
2023/12/14 05:17:03;;;;;;;8.57;3.40;;;6.70;82.20;;;;;;5039470;28;20284;-75
2023/12/14 05:19:29;;;;;;;11.35;4.18;;;6.70;82.10;;;;;;5044924;28;20057;-75
2023/12/14 05:21:56;;;;;;;10.25;3.70;;;6.70;82.10;;;;;;5055519;28;20050;-75
2023/12/14 05:24:24;;;;;;;10.48;3.85;;;6.70;82.10;;;;;;5053961;28;20046;-75
2023/12/14 05:26:51;;;;;;;9.47;4.00;;;6.70;82.20;;;;;;5043680;28;20061;-75
2023/12/14 05:29:18;;;;;;;11.05;4.03;;;6.70;82.30;;;;;;5061021;28;20327;-75
2023/12/14 05:31:46;;;;;;;13.40;4.40;;;6.70;82.20;;;;;;5055554;28;20240;-75
2023/12/14 05:34:13;;;;;;;10.85;3.90;;;6.70;82.30;;;;;;5059533;28;20050;-75
2023/12/14 05:36:40;;;;;;;9.82;3.90;;;6.70;82.20;;;;;;5037919;28;20065;-75
2023/12/14 05:39:07;;;;;;;8.13;3.40;;;6.70;82.00;;;;;;5044086;28;20084;-75
2023/12/14 05:41:33;;;;;;;8.18;3.78;;;6.70;82.30;;;;;;5047594;28;20738;-75
2023/12/14 05:44:00;;;;;;;9.50;3.90;;;6.70;82.50;;;;;;5041805;28;20050;-75
2023/12/14 05:46:27;;;;;;;11.20;4.05;;;6.70;82.40;;;;;;5042637;28;20495;-75
2023/12/14 05:48:56;;;;;;;11.40;3.72;;;6.70;82.10;;;;;;5037859;28;20045;-75
2023/12/14 05:51:30;;;;;;;9.70;4.20;;;6.70;81.90;;;;;;5040705;28;20527;-75
2023/12/14 05:53:57;;;;;;;9.65;3.80;;;6.70;81.90;;;;;;5056485;28;20797;-75
2023/12/14 05:56:24;;;;;;;9.38;3.83;;;6.70;81.90;;;;;;5041482;28;20528;-75
2023/12/14 05:58:51;;;;;;;10.38;3.92;;;6.70;81.70;;;;;;5061217;28;20048;-75
2023/12/14 06:01:19;;;;;;;9.90;3.45;;;6.70;81.70;;;;;;5039819;28;20053;-75
2023/12/14 06:03:46;;;;;;;10.53;4.23;;;6.70;81.70;;;;;;5043162;28;20054;-75
2023/12/14 06:06:14;;;;;;;9.35;3.80;;;6.70;81.60;;;;;;5054023;28;20273;-75
2023/12/14 06:08:41;;;;;;;8.45;3.72;;;6.70;81.80;;;;;;5060517;28;20045;-75
2023/12/14 06:11:08;;;;;;;10.15;3.90;;;6.70;81.80;;;;;;5065034;28;20050;-74
2023/12/14 06:13:35;;;;;;;11.38;4.20;;;6.60;81.50;;;;;;5039820;28;20050;-75
2023/12/14 06:16:03;;;;;;;8.70;3.53;;;6.60;81.60;;;;;;5044907;28;20053;-75
2023/12/14 06:18:29;;;;;;;11.30;4.60;;;6.60;81.50;;;;;;5059706;28;20279;-75
2023/12/14 06:20:57;;;;;;;9.82;4.20;;;6.60;81.20;;;;;;5047970;28;20080;-75
2023/12/14 06:23:26;;;;;;;12.68;4.38;;;6.60;81.20;;;;;;5041905;28;20054;-75
2023/12/14 06:25:53;;;;;;;10.23;4.05;;;6.50;81.20;;;;;;5061053;28;20446;-75
2023/12/14 06:28:21;;;;;;;9.27;4.00;;;6.50;81.40;;;;;;5043888;28;20128;-75
2023/12/14 06:30:48;;;;;;;9.52;4.00;;;6.60;81.40;;;;;;5041422;28;20343;-75
2023/12/14 06:33:15;;;;;;;8.93;3.63;;;6.50;81.30;;;;;;5059195;28;20574;-75
2023/12/14 06:35:42;;;;;;;10.48;4.00;;;6.50;81.30;;;;;;5044456;28;20081;-75
2023/12/14 06:38:08;;;;;;;10.18;4.10;;;6.50;81.20;;;;;;5045889;28;20038;-75
2023/12/14 06:40:37;;;;;;;11.07;4.70;;;6.50;81.10;;;;;;5063577;28;20053;-76
2023/12/14 06:43:05;;;;;;;8.75;4.53;;;6.50;81.10;;;;;;5041841;28;20259;-75
2023/12/14 06:45:32;;;;;;;9.38;4.25;;;6.50;81.10;;;;;;5057997;28;20050;-75
2023/12/14 06:47:59;;;;;;;9.48;4.15;;;6.50;81.10;;;;;;5054685;28;20046;-75
2023/12/14 06:50:26;;;;;;;9.48;4.05;;;6.50;81.20;;;;;;5046803;28;20091;-75
2023/12/14 06:52:52;;;;;;;9.83;3.90;;;6.50;81.20;;;;;;5036091;28;20056;-75
2023/12/14 06:55:19;;;;;;;9.80;3.88;;;6.50;81.20;;;;;;5048250;28;20404;-75
2023/12/14 06:57:48;;;;;;;9.18;4.25;;;6.50;81.50;;;;;;5044996;28;20268;-75
2023/12/14 07:00:16;;;;;;;9.98;4.50;;;6.50;81.40;;;;;;5062447;28;20120;-75
2023/12/14 07:02:44;;;;;;;9.27;3.90;;;6.50;81.30;;;;;;5043848;28;20050;-75
2023/12/14 07:05:11;;;;;;;9.77;4.70;;;6.50;81.30;;;;;;5046947;28;20156;-75
2023/12/14 07:07:38;;;;;;;9.82;4.15;;;6.50;81.30;;;;;;5048148;28;20286;-75
2023/12/14 07:10:05;;;;;;;8.60;4.40;;;6.50;81.20;;;;;;5045204;28;20589;-75
2023/12/14 07:12:32;;;;;;;11.05;4.40;;;6.50;81.20;;;;;;5041655;28;20057;-75
2023/12/14 07:15:00;;;;;;;8.85;4.15;;;6.50;81.20;;;;;;5041287;28;20743;-75
2023/12/14 07:17:27;;;;;;;10.80;5.10;;;6.50;81.10;;;;;;5056628;28;20053;-75
2023/12/14 07:19:54;;;;;;;10.30;4.25;;;6.50;81.10;;;;;;5045527;28;20336;-74
2023/12/14 07:22:21;;;;;;;10.00;4.65;;;6.50;81.10;;;;;;5043557;28;20566;-73
2023/12/14 07:24:47;;;;;;;8.77;4.18;;;6.50;81.10;;;;;;5061398;28;20053;-75
2023/12/14 07:27:14;;;;;;;9.23;4.32;;;6.50;81.20;;;;;;5064436;28;20525;-75
2023/12/14 07:29:41;;;;;;;9.00;4.20;;;6.50;81.20;;;;;;5041870;28;20050;-73
2023/12/14 07:32:09;;;;;;;9.25;4.30;;;6.50;81.30;;;;;;5055844;28;20081;-74
2023/12/14 07:34:36;;;;;;;9.30;4.45;;;6.50;81.40;;;;;;5058202;28;20053;-75
2023/12/14 07:37:03;;;;;;;9.05;4.20;;;6.60;81.50;;;;;;5045662;28;20049;-75
2023/12/14 07:39:30;;;;;;;8.30;3.90;;;6.50;81.70;;;;;;5061003;28;20132;-74
2023/12/14 07:41:57;;;;;;;8.90;3.78;;;6.60;81.80;;;;;;5047017;28;21196;-74
2023/12/14 07:44:25;;;;;;;8.02;3.60;;;6.60;81.80;;;;;;5042403;28;20057;-75
2023/12/14 07:46:52;;;;;;;7.88;3.67;;;6.60;81.70;;;;;;5038240;28;20120;-73
2023/12/14 07:49:23;;;;;;;10.02;3.85;;;6.60;81.60;;;;;;5058347;28;20057;-74
2023/12/14 07:51:50;;;;;;;8.07;3.23;;;6.60;81.50;;;;;;5037516;28;20053;-74
2023/12/14 07:54:17;;;;;;;7.25;3.20;;;6.60;81.70;;;;;;5044724;28;20293;-74
2023/12/14 07:56:43;;;;;;;9.02;3.42;;;6.60;81.90;;;;;;5045531;28;20063;-75
2023/12/14 07:59:11;;;;;;;8.38;3.83;;;6.60;81.90;;;;;;5047151;28;20049;-76
2023/12/14 08:01:38;;;;;;;8.88;3.78;;;6.60;81.90;;;;;;5041678;28;20064;-74
2023/12/14 08:04:05;;;;;;;7.80;3.37;;;6.60;81.90;;;;;;5044130;28;20064;-74
2023/12/14 08:06:33;;;;;;;8.27;4.00;;;6.60;81.70;;;;;;5043557;28;20864;-75
2023/12/14 08:09:00;;;;;;;8.82;4.20;;;6.60;81.80;;;;;;5044956;28;20140;-73
2023/12/14 08:11:27;;;;;;;10.02;4.70;;;6.60;81.90;;;;;;5045987;28;20046;-76
2023/12/14 08:13:54;;;;;;;8.88;3.60;;;6.60;82.00;;;;;;5044630;28;20103;-74
2023/12/14 08:16:21;;;;;;;10.70;4.27;;;6.60;82.20;;;;;;5047308;28;20049;-74
2023/12/14 08:18:48;;;;;;;11.18;4.55;;;6.60;81.90;;;;;;5041040;28;20384;-74
2023/12/14 08:21:15;;;;;;;10.65;4.30;;;6.60;82.00;;;;;;5062463;28;20153;-74
2023/12/14 08:23:44;;;;;;;10.02;4.38;;;6.50;82.10;;;;;;5047046;28;20063;-74
2023/12/14 08:26:12;;;;;;;10.93;4.95;;;6.50;82.10;;;;;;5046188;28;20060;-74
2023/12/14 08:28:39;;;;;;;9.33;4.10;;;6.50;82.00;;;;;;5058418;28;20514;-74
2023/12/14 08:31:08;;;;;;;9.93;4.22;;;6.50;81.70;;;;;;5042446;28;20284;-74
2023/12/14 08:33:35;;;;;;;9.93;4.70;;;6.50;81.90;;;;;;5060179;28;20455;-74
2023/12/14 08:36:01;;;;;;;10.15;4.53;;;6.40;81.50;;;;;;5046370;28;20061;-75
2023/12/14 08:38:28;;;;;;;11.02;4.72;;;6.40;81.50;;;;;;5043624;28;20050;-75
2023/12/14 08:40:57;;;;;;;12.30;4.83;;;6.40;81.80;;;;;;5046517;28;20149;-74
2023/12/14 08:43:24;;;;;;;12.07;5.40;;;6.40;81.80;;;;;;5059535;28;20351;-76
2023/12/14 08:45:50;;;;;;;12.70;5.35;;;6.40;81.80;;;;;;5040476;28;20064;-75
2023/12/14 08:48:17;;;;;;;11.57;5.05;;;6.40;81.90;;;;;;5044823;28;20164;-74
2023/12/14 08:50:44;;;;;;;10.68;4.75;;;6.40;82.00;;;;;;5040545;28;20537;-75
2023/12/14 08:53:11;;;;;;;10.27;4.90;;;6.40;82.00;;;;;;5061638;28;20057;-75
2023/12/14 08:55:38;;;;;;;11.50;5.07;;;6.40;82.00;;;;;;5042211;28;21284;-75
2023/12/14 08:58:06;;;;;;;12.23;5.00;;;6.50;82.10;;;;;;5046778;28;20055;-75
2023/12/14 09:00:33;;;;;;;11.75;4.57;;;6.50;82.10;;;;;;5042458;28;20121;-74
2023/12/14 09:03:00;;;;;;;12.38;4.78;;;6.40;82.20;;;;;;5061099;28;20054;-73
2023/12/14 09:05:27;;;;;;;11.03;4.33;;;6.50;82.20;;;;;;5056290;28;20052;-73
2023/12/14 09:07:56;;;;;;;10.70;4.68;;;6.50;82.30;;;;;;5042519;28;20304;-73
2023/12/14 09:10:23;;;;;;;10.98;4.88;;;6.50;82.20;;;;;;5053241;28;20053;-73
2023/12/14 09:12:49;;;;;;;11.48;5.47;;;6.50;82.20;;;;;;5036670;28;20050;-75
2023/12/14 09:15:18;;;;;;;12.55;4.80;;;6.50;82.20;;;;;;5043984;28;20057;-75
2023/12/14 09:17:45;;;;;;;12.30;4.57;;;6.50;82.30;;;;;;5046212;28;20061;-75
2023/12/14 09:20:40;;;;;;;10.32;5.18;;;6.50;82.50;;;;;;5064146;28;20241;-74
2023/12/14 09:23:06;;;;;;;12.27;5.35;;;6.50;82.50;;;;;;5036610;28;20959;-74
2023/12/14 09:25:34;;;;;;;13.48;5.20;;;6.60;82.50;;;;;;5045008;28;20557;-73
2023/12/14 09:28:00;;;;;;;11.30;5.03;;;6.60;82.50;;;;;;5028378;28;20056;-73
2023/12/14 09:30:29;;;;;;;16.83;5.90;;;6.60;82.60;;;;;;5058407;28;20053;-74
2023/12/14 09:32:55;;;;;;;12.85;5.13;;;6.60;83.00;;;;;;5043881;28;20261;-74
2023/12/14 09:35:22;;;;;;;13.88;5.65;;;6.60;82.90;;;;;;5042107;28;20056;-73
2023/12/14 09:37:49;;;;;;;12.38;5.68;;;6.70;82.70;;;;;;5043401;28;20049;-74
2023/12/14 09:40:16;;;;;;;13.57;5.30;;;6.70;82.70;;;;;;5039465;28;20167;-74
2023/12/14 09:42:44;;;;;;;14.83;4.93;;;6.70;82.60;;;;;;5064309;28;20053;-75
2023/12/14 09:45:11;;;;;;;12.93;5.18;;;6.70;82.60;;;;;;5061738;28;20265;-75
2023/12/14 09:47:40;;;;;;;13.75;5.45;;;6.70;82.60;;;;;;5062821;28;20049;-74
2023/12/14 09:50:09;;;;;;;14.15;5.88;;;6.70;82.30;;;;;;5059855;28;20045;-75
2023/12/14 09:52:35;;;;;;;12.70;5.18;;;6.70;82.50;;;;;;5050332;28;20053;-74
2023/12/14 09:55:04;;;;;;;16.73;5.70;;;6.70;82.50;;;;;;5049415;28;20107;-75
2023/12/14 09:57:30;;;;;;;12.38;4.88;;;6.70;82.40;;;;;;5063441;28;20312;-73
2023/12/14 09:59:58;;;;;;;14.77;5.43;;;6.70;82.30;;;;;;5047446;28;20091;-74
2023/12/14 10:02:27;;;;;;;13.15;5.30;;;6.70;82.40;;;;;;5048317;28;20886;-74
2023/12/14 10:04:55;;;;;;;12.05;4.97;;;6.70;82.50;;;;;;5045129;28;20041;-75
2023/12/14 10:07:23;;;;;;;12.77;5.17;;;6.60;82.50;;;;;;5061646;28;20052;-74
2023/12/14 10:09:50;;;;;;;14.93;5.82;;;6.60;82.00;;;;;;5041812;28;20272;-74
2023/12/14 10:12:18;;;;;;;14.77;5.50;;;6.60;82.00;;;;;;5049695;28;20523;-75
2023/12/14 10:14:44;;;;;;;13.73;4.60;;;6.60;82.10;;;;;;5063190;28;20073;-74
2023/12/14 10:17:19;;;;;;;13.23;5.20;;;6.50;82.30;;;;;;5065382;28;20056;-74
2023/12/14 10:19:47;;;;;;;12.57;5.73;;;6.60;82.50;;;;;;5046639;28;20060;-74
2023/12/14 10:22:17;;;;;;;11.40;5.35;;;6.50;82.40;;;;;;5063962;28;20249;-75
2023/12/14 10:24:45;;;;;;;12.77;5.10;;;6.50;82.50;;;;;;5049639;28;20073;-75
2023/12/14 10:27:12;;;;;;;14.93;5.65;;;6.50;82.50;;;;;;5061171;28;20050;-75
2023/12/14 10:29:40;;;;;;;15.25;5.38;;;6.50;82.60;;;;;;5061586;28;20095;-76
2023/12/14 10:32:08;;;;;;;12.33;4.90;;;6.50;82.70;;;;;;5046523;28;20057;-75
2023/12/14 10:34:36;;;;;;;12.23;4.72;;;6.50;82.30;;;;;;5047052;28;20358;-75
2023/12/14 10:37:06;;;;;;;14.60;5.40;;;6.50;82.50;;;;;;5061105;28;20097;-75
2023/12/14 10:39:35;;;;;;;14.10;5.30;;;6.50;82.30;;;;;;5044365;28;20160;-76
2023/12/14 10:42:04;;;;;;;14.55;5.80;;;6.50;82.10;;;;;;5060194;28;20171;-75
2023/12/14 10:44:38;;;;;;;13.77;4.97;;;6.50;82.20;;;;;;5040920;28;20057;-75
2023/12/14 10:47:07;;;;;;;14.30;5.00;;;6.50;82.30;;;;;;5056434;28;20286;-75
2023/12/14 10:49:35;;;;;;;14.70;5.57;;;6.50;82.30;;;;;;5046439;28;20050;-75
2023/12/14 10:52:04;;;;;;;16.45;5.35;;;6.50;82.20;;;;;;5062404;28;20104;-75
2023/12/14 10:54:36;;;;;;;12.73;5.28;;;6.50;82.20;;;;;;5044845;28;20054;-75
2023/12/14 10:57:04;;;;;;;11.77;4.87;;;6.50;82.20;;;;;;5046817;28;20056;-75
2023/12/14 10:59:32;;;;;;;13.52;5.35;;;6.50;82.10;;;;;;5045407;28;20257;-75
2023/12/14 11:01:59;;;;;;;13.70;4.55;;;6.50;81.90;;;;;;5065279;28;20054;-75
2023/12/14 11:04:27;;;;;;;13.77;5.93;;;6.50;81.90;;;;;;5029633;28;20041;-75
2023/12/14 11:06:54;;;;;;;11.13;4.80;;;6.50;81.90;;;;;;5044228;28;20049;-74
2023/12/14 11:09:24;;;;;;;11.13;4.90;;;6.40;82.00;;;;;;5060405;28;20451;-75
2023/12/14 11:11:59;;;;;;;12.70;4.80;;;6.40;81.80;;;;;;5045159;28;20506;-75
2023/12/14 11:14:27;;;;;;;14.60;5.57;;;6.40;81.90;;;;;;5043601;28;20425;-75
2023/12/14 11:16:56;;;;;;;12.25;4.82;;;6.40;81.80;;;;;;5047521;28;20526;-76
2023/12/14 11:19:31;;;;;;;12.68;4.82;;;6.40;81.80;;;;;;5044154;28;20111;-75
2023/12/14 11:22:17;;;;;;;12.23;5.03;;;6.40;81.70;;;;;;5045974;28;20147;-75
2023/12/14 11:24:53;;;;;;;12.35;4.95;;;6.40;81.70;;;;;;5045611;28;20630;-75
2023/12/14 11:27:27;;;;;;;12.85;5.20;;;6.40;81.70;;;;;;5060195;28;20525;-75
2023/12/14 11:29:54;;;;;;;12.23;4.78;;;6.50;81.60;;;;;;5047499;28;20049;-75
2023/12/14 11:32:21;;;;;;;10.18;3.97;;;6.50;81.50;;;;;;5063922;28;20049;-76
2023/12/14 11:34:48;;;;;;;11.33;4.20;;;6.50;81.40;;;;;;5046527;28;20875;-76
2023/12/14 11:37:16;;;;;;;10.73;4.00;;;6.50;81.20;;;;;;5059181;28;20265;-75
2023/12/14 11:39:43;;;;;;;10.82;4.38;;;6.40;80.90;;;;;;5062357;28;20054;-74
2023/12/14 11:42:10;;;;;;;10.93;4.35;;;6.40;80.80;;;;;;5042241;28;20132;-74
2023/12/14 11:44:42;;;;;;;12.32;5.10;;;6.40;80.70;;;;;;5045389;28;20053;-74
2023/12/14 11:47:09;;;;;;;11.27;4.83;;;6.40;80.80;;;;;;5056555;28;20129;-74
2023/12/14 11:49:36;;;;;;;12.20;4.88;;;6.30;80.90;;;;;;5061299;28;20300;-76
2023/12/14 11:52:05;;;;;;;11.43;5.15;;;6.30;80.90;;;;;;5058447;28;20080;-77
2023/12/14 11:54:32;;;;;;;9.95;5.10;;;6.30;80.90;;;;;;5043069;28;20076;-76
2023/12/14 11:57:02;;;;;;;13.05;5.32;;;6.30;80.90;;;;;;5037048;28;20558;-76
2023/12/14 11:59:29;;;;;;;12.80;5.27;;;6.30;80.80;;;;;;5045943;28;20666;-76
2023/12/14 12:01:59;;;;;;;13.60;4.95;;;6.40;80.70;;;;;;5060975;28;20287;-76
2023/12/14 12:04:27;;;;;;;10.50;4.55;;;6.40;80.50;;;;;;5061430;28;20163;-76
2023/12/14 12:07:02;;;;;;;11.65;4.75;;;6.40;80.30;;;;;;5062384;28;20054;-76
2023/12/14 12:09:37;;;;;;;11.05;3.75;;;6.30;80.30;;;;;;5058774;28;20080;-77
2023/12/14 12:12:07;;;;;;;9.73;3.80;;;6.30;80.20;;;;;;5061906;28;20064;-76
2023/12/14 12:14:34;;;;;;;10.20;4.30;;;6.40;79.80;;;;;;5042702;28;20300;-76
2023/12/14 12:17:04;;;;;;;9.68;4.20;;;6.30;79.70;;;;;;5043795;28;20537;-77
2023/12/14 12:19:31;;;;;;;11.07;4.80;;;6.30;79.70;;;;;;5054101;28;20054;-76
2023/12/14 12:21:58;;;;;;;11.45;4.63;;;6.30;79.90;;;;;;5062092;28;20068;-76
2023/12/14 12:24:25;;;;;;;11.23;4.50;;;6.30;79.70;;;;;;5046122;28;20045;-76
2023/12/14 12:26:52;;;;;;;13.05;4.50;;;6.30;79.50;;;;;;5060441;28;20860;-76
2023/12/14 12:29:19;;;;;;;11.68;5.22;;;6.30;79.50;;;;;;5046017;28;20112;-75
2023/12/14 12:31:47;;;;;;;9.32;4.20;;;6.30;79.80;;;;;;5046352;28;20266;-76
2023/12/14 12:34:15;;;;;;;11.98;4.50;;;6.30;79.90;;;;;;5062134;28;20605;-75
2023/12/14 12:36:42;;;;;;;10.87;4.57;;;6.30;80.00;;;;;;5044728;28;20501;-75
2023/12/14 12:39:09;;;;;;;11.38;4.55;;;6.30;80.00;;;;;;5046499;28;20507;-75
2023/12/14 12:41:37;;;;;;;10.77;4.40;;;6.30;80.10;;;;;;5059343;28;20045;-75
2023/12/14 12:44:07;;;;;;;13.05;4.53;;;6.30;79.70;;;;;;5062346;28;20057;-75
2023/12/14 12:46:34;;;;;;;11.10;4.65;;;6.30;79.70;;;;;;5061952;28;20121;-75
2023/12/14 12:49:02;;;;;;;10.97;4.30;;;6.30;79.50;;;;;;5057817;28;20161;-75
2023/12/14 12:51:30;;;;;;;10.48;4.97;;;6.40;79.70;;;;;;5045082;28;20249;-75
2023/12/14 12:54:03;;;;;;;9.95;3.58;;;6.40;79.60;;;;;;5060369;28;20157;-75
2023/12/14 12:56:30;;;;;;;10.30;4.05;;;6.40;79.30;;;;;;5044705;28;20600;-76